Historyczne dane pomiarowe

Dodano dane terminowe – wersja testowa.

Dane z okresu 1951-2019

Wersja bazy: 1.34 [2019-03-16, lista zmian], aktualizacja planowana na 2019-04-15

Dane meteo z obszaru Polski uzyskane na podstawie danych udostępnionych przez Instytut Meteorologii i Gospodarki Wodnej – Państwowy Instytut Badawczy.

 

Wybierz Datę:    

       

TemperaturaWilgotnośćWiatrCiśnienieOpadyŚniegCzas trwania zjawisk
 Stacja t tx tn tng RH VA  wxwx mslp ppp RRR   cm mm wxwxwxwxwxwxwx
1956-11-09 -5.4 -1.8-10.5-14.5 79.0- 3.3 0.7---- 0.0------------
1956-11-08 -5.6 -1.0 -7.5 -9.7 79.8- 0.0 2.0---- 0.0------------
1956-11-07 -1.3 2.2 -3.2 -4.6 69.3- 5.3 3.7---- 0.0------------
1956-11-06 -0.2 4.7 -1.1 -1.8 80.0- 3.0 3.7---- 0.0------------
1956-11-05 1.8 5.2 -4.5 -9.4 85.5- 4.3 1.7---- 0.7------------
1956-11-04 -1.4 3.1 -4.2 -8.5 82.5- 2.3 0.3---- 0.0------------
1956-11-03 -2.5 0.7 -6.6-11.1 92.0- 5.3 0.7---- 0.0------------
1956-11-02 -2.0 3.7 -4.2 -4.3 91.5- 3.7 0.7---- 0.1-- 2---------
1956-11-01 -0.9 2.2 -8.0-12.3 63.8- 5.3 1.0---- 1.8------------
1956-10-31 -5.6 -1.2 -6.9 -5.4 69.8- 2.7 0.7---- 0.0------------
1956-10-30 -0.1 4.6 -1.5 -1.5 91.0- 8.0 2.0---- 0.1------------
1956-10-29 5.2 11.1 3.1 -1.4 87.5- 4.0 0.3---- 0.7------------
1956-10-28 11.0 11.8 8.8 8.6 95.0- 8.0 1.7---- 4.4------------
1956-10-27 9.4 11.7 5.8 1.5 93.0- 8.0 0.7---- 2.4------------
1956-10-26 10.2 14.7 4.6 -0.5 88.0- 7.0 0.3---- 0.0------------
1956-10-25 10.8 16.2 6.6 2.2 83.5- 0.0 1.0---- 0.0------------
1956-10-24 10.3 14.4 3.8 -1.8 87.8- 3.0 1.0---- 0.0------------
1956-10-23 9.6 11.2 7.4 3.0 81.0- 7.7 1.3---- 0.0------------
1956-10-22 9.8 12.6 8.0 5.8 91.5- 5.3 1.0---- 0.0------------
1956-10-21 12.0 14.7 8.0 3.9 87.8- 3.3 1.3---- 0.0------------
1956-10-20 9.0 12.5 5.6 1.4 87.3- 8.0 0.7---- 0.0------------
1956-10-19 11.0 12.6 8.8 7.6 93.8- 8.0 1.0---- 1.5------------
1956-10-18 8.7 12.0 2.0 -3.9 84.8- 7.7 0.3---- 0.5------------
1956-10-17 4.0 11.3 -1.7 -5.5 82.3- 0.0 0.3---- 0.0------------
1956-10-16 3.9 9.7 -0.7 -4.7 85.5- 2.7 1.0---- 0.0------------
1956-10-15 6.2 10.8 2.5 -0.5 79.8- 1.3 2.0---- 0.0------------
1956-10-14 7.8 10.6 4.9 7.3 68.8- 1.3 4.3---- 1.0------------
1956-10-13 10.0 11.8 7.0 3.2 74.0- 6.7 5.3---- 6.8------------
1956-10-12 9.2 11.1 8.1 6.5 83.3- 7.7 2.0---- 0.0------------
1956-10-11 8.0 10.3 0.5 -4.2 70.8- 7.7 1.7---- 0.0------------
1956-10-10 2.6 8.1 -0.1 -2.5 82.8- 1.7 1.0---- 0.0------------
1956-10-09 6.5 10.2 1.5 -2.7 84.5- 5.0 1.0---- 0.0------------
1956-10-08 4.1 9.4 1.9 -1.9 86.5- 3.7 1.0---- 0.0------------
1956-10-07 6.2 9.2 2.1 1.0 83.3- 8.0 5.7---- 3.6------------
1956-10-06 9.4 10.7 8.9 6.0 96.5- 8.0 0.0---- 32.1------------
1956-10-05 11.2 15.8 9.2 7.8 85.5- 5.0 0.3---- 0.5------------
1956-10-04 9.3 13.3 6.2 1.4 92.8- 8.0 0.3---- 4.2------------
1956-10-03 16.1 21.6 13.0 6.2 68.5- 5.3 3.0---- 0.0------------
1956-10-02 17.2 24.8 10.5 4.8 72.5- 0.0 0.7---- 0.0------------
1956-10-01 14.2 22.6 4.7 -0.4 83.5- 1.3 0.3---- 0.0------------
1956-09-30 12.2 18.6 9.1 7.0 84.0- 0.3 0.3---- 0.0------------
1956-09-29 17.0 22.0 11.6 6.6 77.0- 7.0 1.7---- 0.0------------
1956-09-28 14.0 20.1 11.7 6.1 83.0- 4.0 1.0---- 0.0------------
1956-09-27 14.6 20.7 8.8 2.7 62.5- 1.7 0.7---- 0.0------------
1956-09-26 13.5 21.1 7.0 -0.5 64.0- 0.0 1.0---- 0.0------------
1956-09-25 11.2 19.3 1.6 -3.2 72.8- 0.3 1.3---- 0.0------------
1956-09-24 6.9 14.0 2.1 -0.8 65.3- 0.0 2.7---- 0.0------------
1956-09-23 9.6 15.3 6.4 1.6 78.3- 3.7 2.3---- 0.0------------
1956-09-22 12.2 19.0 4.1 -1.2 73.8- 2.0 1.7---- 0.0------------
1956-09-21 9.6 18.2 3.6 -1.5 81.3- 0.0 0.0---- 0.0------------
1956-09-20 9.1 16.6 2.8 -2.5 80.5- 0.7 0.3---- 0.0------------
1956-09-19 7.6 15.7 0.5 -2.7 80.3- 1.0 0.3---- 0.0------------
1956-09-18 6.9 11.7 5.1 1.7 86.3- 5.3 1.3---- 0.0------------
1956-09-17 8.4 12.3 7.3 6.5 85.8- 4.3 2.0---- 3.3------------
1956-09-16 10.6 13.1 8.1 5.0 77.5- 7.0 1.3---- 0.0------------
1956-09-15 10.8 15.8 5.1 0.0 84.8- 2.0 0.0---- 0.0------------
1956-09-14 9.3 13.3 6.9 2.1 81.5- 3.7 1.3---- 0.0------------
1956-09-13 8.1 12.9 7.1 4.6 88.8- 5.3 1.0---- 1.3------------
1956-09-12 10.9 14.2 8.9 7.0 92.3- 5.7 1.0---- 10.4------------
1956-09-11 12.0 14.2 11.4 10.2 97.5- 8.0 0.3---- 19.0------------
284.6 ms

 

Źródłem pochodzenia danych jest Instytut Meteorologii i Gospodarki Wodnej – Państwowy Instytut Badawczy. Dane Instytutu Meteorologii i Gospodarki Wodnej – Państwowego Instytutu Badawczego zostały przetworzone.

Dane źródłowe można odnaleźć na stronie https://dane.imgw.pl